Аэропорт: Алматы. Алма-Ата

ICAO: UAAA

METAR:
2018/07/22 20:00
UAAA 222000Z VRB01MPS 9999 NSC 23/08 Q0998 R05R/CLRD65 NOSIG
METAR:
2018/07/22 18:37
TAF UAAA 221700Z 2218/2318 16005MPS 9999 SCT050CB BKN100 TX36/2307Z TN20/2301Z 
      BECMG 2303/2304 24006MPS BKN050CB BKN100 
      TEMPO 2305/2312 VRB17MPS 3000 -TSRA SQ 
      TEMPO 2312/2318 26010MPS -TSRA